createdAt,value
2017-09-13T00:00:51.323Z,0.90
2017-09-13T00:03:19.145Z,0.60
2017-09-13T00:05:46.968Z,1.07
2017-09-13T00:08:14.839Z,0.90
2017-09-13T00:10:42.570Z,0.60
2017-09-13T00:13:10.342Z,0.73
2017-09-13T00:15:38.098Z,0.90
2017-09-13T00:18:05.889Z,1.00
2017-09-13T00:20:33.723Z,1.07
2017-09-13T00:23:01.444Z,1.10
2017-09-13T00:25:29.188Z,1.10
2017-09-13T00:27:56.926Z,1.10
2017-09-13T00:30:25.476Z,2.00
2017-09-13T00:32:53.195Z,0.90
2017-09-13T00:35:20.928Z,1.30
2017-09-13T00:37:48.667Z,1.20
2017-09-13T00:40:16.446Z,1.00
2017-09-13T00:42:44.233Z,1.50
2017-09-13T00:45:12.103Z,1.20
2017-09-13T00:47:39.896Z,1.10
2017-09-13T00:50:07.623Z,1.13
2017-09-13T00:52:35.344Z,1.50
2017-09-13T00:55:03.131Z,1.57
2017-09-13T00:57:30.936Z,1.60
2017-09-13T00:59:58.696Z,1.20
2017-09-13T01:02:26.500Z,1.30
2017-09-13T01:04:54.257Z,1.10
2017-09-13T01:07:22.067Z,1.13
2017-09-13T01:09:49.873Z,1.33
2017-09-13T01:12:18.360Z,1.30
2017-09-13T01:14:47.021Z,1.10
2017-09-13T01:17:14.819Z,1.53
2017-09-13T01:19:42.602Z,1.63
2017-09-13T01:22:10.476Z,1.17
2017-09-13T01:24:38.218Z,2.00
2017-09-13T01:27:06.033Z,1.87
2017-09-13T01:29:33.777Z,1.47
2017-09-13T01:32:01.500Z,2.17
2017-09-13T01:34:29.230Z,1.70
2017-09-13T01:36:56.974Z,1.90
2017-09-13T01:39:24.760Z,1.60
2017-09-13T01:41:52.508Z,1.67
2017-09-13T01:44:20.266Z,2.13
2017-09-13T01:46:48.052Z,1.20
2017-09-13T01:49:15.824Z,1.33
2017-09-13T01:51:43.632Z,1.67
2017-09-13T01:54:11.399Z,1.27
2017-09-13T01:56:39.220Z,1.03
2017-09-13T01:59:06.943Z,1.53
2017-09-13T02:01:34.724Z,1.00
2017-09-13T02:04:03.163Z,0.97
2017-09-13T02:06:30.984Z,1.40
2017-09-13T02:08:58.765Z,1.17
2017-09-13T02:11:26.486Z,1.13
2017-09-13T02:13:55.066Z,0.90
2017-09-13T02:16:22.846Z,1.03
2017-09-13T02:18:50.551Z,1.20
2017-09-13T02:21:18.282Z,0.90
2017-09-13T02:23:46.009Z,1.10
2017-09-13T02:26:13.839Z,1.20
2017-09-13T02:28:41.633Z,1.80
2017-09-13T02:31:09.441Z,1.63
2017-09-13T02:33:37.155Z,1.50
2017-09-13T02:36:05.021Z,1.10
2017-09-13T02:38:32.836Z,1.97
2017-09-13T02:41:00.640Z,1.50
2017-09-13T02:43:28.478Z,0.97
2017-09-13T02:45:56.271Z,1.70
2017-09-13T02:48:24.001Z,1.43
2017-09-13T02:50:51.754Z,2.47
2017-09-13T02:53:19.473Z,1.23
2017-09-13T02:55:47.187Z,1.70
2017-09-13T02:58:15.006Z,3.80
2017-09-13T03:00:42.739Z,1.37
2017-09-13T03:03:10.476Z,1.60
2017-09-13T03:05:38.290Z,0.93
2017-09-13T03:08:06.824Z,1.30
2017-09-13T03:10:34.562Z,2.30
2017-09-13T03:13:02.326Z,1.37
2017-09-13T03:15:30.122Z,1.40
2017-09-13T03:17:57.930Z,1.70
2017-09-13T03:20:25.694Z,1.57
2017-09-13T03:22:53.497Z,1.20
2017-09-13T03:25:21.225Z,1.90
2017-09-13T03:27:49.093Z,1.47
2017-09-13T03:30:16.900Z,1.70
2017-09-13T03:32:44.676Z,1.90
2017-09-13T03:35:12.563Z,2.13
2017-09-13T03:37:40.340Z,2.40
2017-09-13T03:40:08.047Z,1.37
2017-09-13T03:42:35.857Z,1.30
2017-09-13T03:45:03.636Z,1.60
2017-09-13T03:47:31.442Z,2.00
2017-09-13T03:49:59.166Z,3.00
2017-09-13T03:52:26.933Z,2.10
2017-09-13T03:54:54.657Z,1.83
2017-09-13T03:57:22.488Z,2.37
2017-09-13T03:59:50.292Z,1.93
2017-09-13T04:02:18.086Z,2.03
2017-09-13T04:04:45.846Z,2.13
2017-09-13T04:07:13.594Z,2.13
2017-09-13T04:09:41.331Z,2.43
2017-09-13T04:12:09.134Z,1.83
2017-09-13T04:14:36.897Z,1.77
2017-09-13T04:17:04.680Z,2.30
2017-09-13T04:19:32.500Z,1.57
2017-09-13T04:22:00.274Z,1.90
2017-09-13T04:24:28.003Z,2.43
2017-09-13T04:26:55.744Z,1.93
2017-09-13T04:29:24.058Z,2.10
2017-09-13T04:31:51.787Z,2.30
2017-09-13T04:34:19.605Z,1.70
2017-09-13T04:36:47.378Z,1.93
2017-09-13T04:39:15.177Z,2.47
2017-09-13T04:44:15.733Z,2.23
2017-09-13T04:46:43.625Z,2.23
2017-09-13T04:49:11.353Z,2.10
2017-09-13T04:51:39.135Z,2.57
2017-09-13T04:54:06.991Z,2.17
2017-09-13T04:56:34.796Z,2.40
2017-09-13T04:59:02.529Z,2.00
2017-09-13T05:01:30.589Z,2.83
2017-09-13T05:03:58.333Z,2.90
2017-09-13T05:06:26.062Z,3.03
2017-09-13T05:08:53.847Z,2.47
2017-09-13T05:11:21.634Z,2.50
2017-09-13T05:13:50.031Z,2.70
2017-09-13T05:16:17.905Z,2.73
2017-09-13T05:18:51.275Z,2.30
2017-09-13T05:38:47.363Z,3.20
2017-09-13T05:41:16.747Z,2.90
2017-09-13T05:43:44.544Z,3.83
2017-09-13T05:46:12.350Z,2.90
2017-09-13T05:48:40.118Z,3.40
2017-09-13T05:51:08.400Z,3.50
2017-09-13T05:53:36.253Z,3.30
2017-09-13T05:56:04.014Z,2.93
2017-09-13T05:58:31.879Z,3.03
2017-09-13T06:00:59.752Z,3.17
2017-09-13T06:03:27.487Z,3.87
2017-09-13T06:05:56.216Z,4.90
2017-09-13T06:08:23.968Z,4.07
2017-09-13T06:10:51.778Z,3.83
2017-09-13T06:13:19.573Z,3.40
2017-09-13T06:15:47.345Z,4.53
2017-09-13T06:18:15.148Z,4.30
2017-09-13T06:20:43.012Z,3.90
2017-09-13T06:23:10.805Z,4.20
2017-09-13T06:25:38.629Z,3.33
2017-09-13T06:28:06.494Z,3.63
2017-09-13T06:30:34.271Z,3.10
2017-09-13T06:33:01.985Z,3.47
2017-09-13T06:35:29.862Z,3.50
2017-09-13T06:37:57.576Z,3.17
2017-09-13T06:40:25.295Z,4.77
2017-09-13T06:42:53.136Z,4.60
2017-09-13T06:45:22.524Z,3.20
2017-09-13T06:47:50.560Z,4.47
2017-09-13T06:50:18.374Z,4.40
2017-09-13T06:52:46.172Z,3.77
2017-09-13T06:55:14.084Z,3.50
2017-09-13T06:57:42.672Z,4.33
2017-09-13T07:00:11.589Z,4.20
2017-09-13T07:02:40.084Z,5.00
2017-09-13T07:05:07.912Z,5.50
2017-09-13T07:07:36.494Z,5.50
2017-09-13T07:10:05.036Z,5.53
2017-09-13T07:12:33.572Z,4.67
2017-09-13T07:15:02.114Z,5.13
2017-09-13T07:17:29.840Z,4.53
2017-09-13T07:19:57.581Z,4.63
2017-09-13T07:22:25.391Z,5.57
2017-09-13T07:24:53.169Z,6.60
2017-09-13T07:27:20.900Z,6.83
2017-09-13T07:29:48.675Z,8.07
2017-09-13T07:32:16.444Z,7.63
2017-09-13T07:34:44.236Z,7.70
2017-09-13T07:37:12.021Z,6.30
2017-09-13T07:39:39.741Z,8.30
2017-09-13T07:42:08.361Z,7.57
2017-09-13T07:44:36.079Z,6.27
2017-09-13T07:47:04.740Z,6.37
2017-09-13T07:49:32.468Z,7.33
2017-09-13T07:52:00.245Z,6.60
2017-09-13T07:54:28.033Z,6.50
2017-09-13T07:56:55.751Z,7.00
2017-09-13T07:59:23.552Z,8.43
2017-09-13T08:01:51.490Z,7.90
2017-09-13T08:04:19.225Z,7.27
2017-09-13T08:06:47.047Z,8.00
2017-09-13T08:09:14.869Z,7.07
2017-09-13T08:11:43.429Z,6.93
2017-09-13T08:14:11.209Z,7.83
2017-09-13T08:16:38.989Z,9.20
2017-09-13T08:19:06.762Z,9.20
2017-09-13T08:21:34.564Z,10.73
2017-09-13T08:24:02.364Z,10.50
2017-09-13T08:26:30.152Z,11.60
2017-09-13T08:28:58.664Z,10.20
2017-09-13T08:31:26.397Z,10.20
2017-09-13T08:33:54.182Z,10.97
2017-09-13T08:36:21.978Z,9.80
2017-09-13T08:38:49.722Z,8.80
2017-09-13T08:41:17.511Z,9.07
2017-09-13T08:43:45.254Z,9.70
2017-09-13T08:46:12.982Z,10.17
2017-09-13T08:48:40.703Z,9.17
2017-09-13T08:51:08.524Z,9.23
2017-09-13T08:53:36.263Z,10.53
2017-09-13T08:56:04.071Z,9.83
2017-09-13T08:58:31.860Z,8.80
2017-09-13T09:00:59.737Z,10.57
2017-09-13T09:03:27.481Z,9.60
2017-09-13T09:05:55.219Z,8.83
2017-09-13T09:08:22.943Z,10.30
2017-09-13T09:10:50.720Z,10.63
2017-09-13T09:13:18.561Z,10.20
2017-09-13T09:15:46.361Z,9.33
2017-09-13T09:18:14.101Z,7.70
2017-09-13T09:20:46.501Z,6.30
2017-09-13T09:23:18.025Z,5.77
2017-09-13T09:25:45.838Z,5.43
2017-09-13T09:28:13.617Z,6.17
2017-09-13T09:30:41.603Z,6.10
2017-09-13T09:33:11.073Z,6.10
2017-09-13T09:35:38.855Z,8.30
2017-09-13T09:38:06.687Z,7.30
2017-09-13T09:40:34.501Z,7.37
2017-09-13T09:43:02.209Z,7.70
2017-09-13T09:45:29.989Z,8.17
2017-09-13T09:47:57.780Z,5.27
2017-09-13T09:50:25.511Z,5.23
2017-09-13T09:52:53.315Z,5.53
2017-09-13T09:55:21.130Z,5.40
2017-09-13T09:57:49.699Z,5.27
2017-09-13T10:00:17.550Z,5.63
2017-09-13T10:02:45.354Z,6.27
2017-09-13T10:05:13.864Z,6.40
2017-09-13T10:07:41.611Z,5.87
2017-09-13T10:10:09.425Z,3.60
2017-09-13T10:12:37.230Z,5.37
2017-09-13T10:15:04.963Z,4.30
2017-09-13T10:17:32.719Z,3.80
2017-09-13T10:20:00.603Z,3.43
2017-09-13T10:22:28.345Z,3.20
2017-09-13T10:24:56.270Z,3.67
2017-09-13T10:27:24.078Z,4.33
2017-09-13T10:29:51.868Z,3.90
2017-09-13T10:32:19.701Z,3.53
2017-09-13T10:34:47.424Z,3.50
2017-09-13T10:37:15.165Z,4.13
2017-09-13T10:39:43.043Z,3.30
2017-09-13T10:42:10.768Z,3.60
2017-09-13T10:44:38.568Z,4.10
2017-09-13T10:47:06.381Z,3.00
2017-09-13T10:49:34.942Z,2.97
2017-09-13T10:52:02.667Z,3.80
2017-09-13T10:54:30.481Z,2.73
2017-09-13T10:56:58.225Z,3.00
2017-09-13T10:59:26.023Z,3.63
2017-09-13T11:01:53.901Z,3.27
2017-09-13T11:04:22.461Z,4.87
2017-09-13T11:06:50.235Z,4.13
2017-09-13T11:09:17.980Z,5.13
2017-09-13T11:11:45.779Z,4.87
2017-09-13T11:14:13.496Z,4.80
2017-09-13T11:16:41.224Z,5.03
2017-09-13T11:19:09.046Z,5.00
2017-09-13T11:21:36.854Z,4.50
2017-09-13T11:24:04.675Z,3.80
2017-09-13T11:26:32.404Z,4.30
2017-09-13T11:29:00.285Z,3.70
2017-09-13T11:31:28.116Z,4.63
2017-09-13T11:33:55.909Z,3.50
2017-09-13T11:36:23.832Z,4.20
2017-09-13T11:38:51.556Z,3.20
2017-09-13T11:41:19.329Z,3.40
2017-09-13T11:43:47.078Z,3.67
2017-09-13T11:46:14.837Z,3.20
2017-09-13T11:48:42.576Z,2.63
2017-09-13T11:51:10.313Z,2.67
2017-09-13T11:53:38.076Z,1.90
2017-09-13T11:56:05.934Z,2.10
2017-09-13T11:58:33.687Z,2.83
2017-09-13T12:01:01.511Z,3.33
2017-09-13T12:03:29.229Z,2.87
2017-09-13T12:05:57.045Z,2.70
2017-09-13T12:08:24.797Z,3.30
2017-09-13T12:10:52.606Z,2.50
2017-09-13T12:13:20.403Z,2.40
2017-09-13T12:15:48.181Z,2.40
2017-09-13T12:18:15.981Z,3.60
2017-09-13T12:20:43.776Z,3.93
2017-09-13T12:23:11.564Z,3.23
2017-09-13T12:25:39.371Z,2.20
2017-09-13T12:28:07.251Z,2.10
2017-09-13T12:30:34.977Z,3.07
2017-09-13T12:33:02.758Z,2.83
2017-09-13T12:35:30.572Z,2.30
2017-09-13T12:37:59.063Z,3.30
2017-09-13T12:40:26.846Z,2.17
2017-09-13T12:42:54.798Z,2.60
2017-09-13T12:45:23.357Z,3.00
2017-09-13T12:47:51.211Z,3.03
2017-09-13T12:50:19.032Z,2.80
2017-09-13T12:52:46.756Z,2.57
2017-09-13T12:55:14.524Z,2.30
2017-09-13T12:57:42.344Z,2.43
2017-09-13T13:00:10.169Z,2.60
2017-09-13T13:02:37.999Z,2.00
2017-09-13T13:05:09.291Z,1.90
2017-09-13T13:07:45.173Z,2.43
2017-09-13T13:10:12.995Z,2.77
2017-09-13T13:12:41.661Z,2.40
2017-09-13T13:15:09.484Z,2.20
2017-09-13T13:17:37.245Z,2.30
2017-09-13T13:20:05.058Z,3.10
2017-09-13T13:22:32.893Z,2.60
2017-09-13T13:25:00.697Z,2.30
2017-09-13T13:27:28.582Z,2.47
2017-09-13T13:29:56.392Z,2.43
2017-09-13T13:32:24.193Z,2.20
2017-09-13T13:34:51.975Z,2.70
2017-09-13T13:37:19.724Z,2.50
2017-09-13T13:39:47.484Z,2.13
2017-09-13T13:42:15.346Z,2.00
2017-09-13T13:44:43.084Z,2.57
2017-09-13T13:47:10.882Z,2.30
2017-09-13T13:49:38.823Z,2.43
2017-09-13T13:52:07.447Z,2.40
2017-09-13T13:54:35.347Z,2.70
2017-09-13T13:57:03.346Z,2.10
2017-09-13T13:59:31.283Z,2.63
2017-09-13T14:01:59.184Z,2.60
2017-09-13T14:04:27.345Z,2.83
2017-09-13T14:06:55.955Z,2.80
2017-09-13T14:09:24.520Z,2.50
2017-09-13T14:11:52.303Z,2.60
2017-09-13T14:14:27.221Z,3.03
2017-09-13T14:16:55.069Z,3.40
2017-09-13T14:19:22.825Z,2.30
2017-09-13T14:21:50.615Z,2.30
2017-09-13T14:24:18.435Z,2.50
2017-09-13T14:26:46.198Z,4.00
2017-09-13T14:29:13.998Z,2.50
2017-09-13T14:31:41.738Z,2.37
2017-09-13T14:34:09.478Z,2.43
2017-09-13T14:36:37.254Z,2.40
2017-09-13T14:39:05.051Z,2.30
2017-09-13T14:41:32.851Z,2.60
2017-09-13T14:44:00.680Z,2.43
2017-09-13T14:46:28.405Z,2.27
2017-09-13T14:48:56.230Z,3.27
2017-09-13T14:51:24.034Z,2.83
2017-09-13T14:53:51.803Z,2.60
2017-09-13T14:56:19.603Z,2.10
2017-09-13T14:58:47.541Z,3.23
2017-09-13T15:01:15.312Z,2.47
2017-09-13T15:03:43.038Z,3.20
2017-09-13T15:06:10.793Z,2.57
2017-09-13T15:08:38.569Z,2.90
2017-09-13T15:11:06.293Z,3.40
2017-09-13T15:13:34.087Z,2.50
2017-09-13T15:16:01.872Z,2.60
2017-09-13T15:18:29.682Z,2.53
2017-09-13T15:20:58.212Z,3.00
2017-09-13T15:23:26.026Z,2.83
2017-09-13T15:25:53.756Z,2.90
2017-09-13T15:28:21.577Z,2.53
2017-09-13T15:30:50.068Z,2.37
2017-09-13T15:33:18.706Z,2.43
2017-09-13T15:35:46.526Z,2.63
2017-09-13T15:38:15.080Z,2.10
2017-09-13T15:40:42.877Z,2.93
2017-09-13T15:43:10.631Z,3.43
2017-09-13T15:45:40.109Z,2.83
2017-09-13T15:48:07.845Z,3.30
2017-09-13T15:50:35.551Z,2.50
2017-09-13T15:53:03.362Z,2.50
2017-09-13T15:55:31.154Z,2.17
2017-09-13T15:57:58.872Z,2.90
2017-09-13T16:00:27.377Z,3.10
2017-09-13T16:02:55.199Z,1.80
2017-09-13T16:08:19.836Z,3.13
2017-09-13T16:10:47.689Z,2.60
2017-09-13T16:13:16.587Z,2.80
2017-09-13T16:15:49.385Z,2.80
2017-09-13T16:18:17.188Z,2.90
2017-09-13T16:20:45.066Z,2.50
2017-09-13T16:23:12.920Z,3.60
2017-09-13T16:25:40.730Z,2.60
2017-09-13T16:28:08.534Z,4.37
2017-09-13T16:30:36.740Z,2.60
2017-09-13T16:37:51.684Z,2.93
2017-09-13T16:40:19.527Z,2.40
2017-09-13T16:42:48.087Z,3.40
2017-09-13T16:45:15.964Z,2.20
2017-09-13T16:47:43.775Z,2.70
2017-09-13T16:50:11.605Z,3.13
2017-09-13T16:52:39.345Z,3.43
2017-09-13T16:55:07.211Z,2.30
2017-09-13T16:57:35.024Z,2.77
2017-09-13T17:00:02.763Z,3.00
2017-09-13T17:02:30.501Z,2.70
2017-09-13T17:04:58.275Z,3.50
2017-09-13T17:07:26.091Z,2.97
2017-09-13T17:09:53.981Z,3.07
2017-09-13T17:12:21.785Z,4.30
2017-09-13T17:14:49.593Z,3.50
2017-09-13T17:17:17.472Z,3.57
2017-09-13T17:19:45.273Z,3.30
2017-09-13T17:22:16.861Z,2.40
2017-09-13T17:24:44.632Z,3.90
2017-09-13T17:27:12.379Z,2.93
2017-09-13T17:29:40.188Z,3.17
2017-09-13T17:32:07.998Z,3.40
2017-09-13T17:34:35.828Z,3.10
2017-09-13T17:37:03.623Z,3.67
2017-09-13T17:39:31.631Z,3.17
2017-09-13T17:42:01.242Z,4.17
2017-09-13T17:44:29.008Z,3.63
2017-09-13T17:46:56.773Z,3.67
2017-09-13T17:49:25.527Z,3.20
2017-09-13T17:51:53.285Z,4.00
2017-09-13T17:54:21.051Z,3.50
2017-09-13T17:56:48.857Z,6.20
2017-09-13T17:59:17.444Z,3.80
2017-09-13T18:01:45.219Z,3.50
2017-09-13T18:04:13.038Z,3.80
2017-09-13T18:06:43.430Z,4.00
2017-09-13T18:09:11.193Z,3.30
2017-09-13T18:11:38.934Z,3.93
2017-09-13T18:14:08.074Z,4.10
2017-09-13T18:16:35.829Z,3.87
2017-09-13T18:19:03.649Z,3.80
2017-09-13T18:21:31.450Z,3.63
2017-09-13T18:24:00.013Z,3.60
2017-09-13T18:26:27.968Z,4.33
2017-09-13T18:28:58.026Z,5.20
2017-09-13T18:31:25.839Z,5.90
2017-09-13T18:33:53.654Z,5.33
2017-09-13T18:36:22.310Z,4.40
2017-09-13T18:38:50.071Z,5.10
2017-09-13T18:41:17.895Z,4.57
2017-09-13T18:43:45.802Z,4.03
2017-09-13T18:46:13.565Z,3.97
2017-09-13T18:48:42.140Z,3.30
2017-09-13T18:51:10.023Z,3.77
2017-09-13T18:53:38.597Z,3.60
2017-09-13T18:56:14.406Z,6.10
2017-09-13T18:58:42.197Z,4.50
2017-09-13T19:01:10.162Z,3.83
2017-09-13T19:03:38.032Z,3.57
2017-09-13T19:06:08.728Z,3.90
2017-09-13T19:08:36.469Z,4.00
2017-09-13T19:11:04.832Z,3.40
2017-09-13T19:13:32.613Z,3.80
2017-09-13T19:16:00.382Z,3.77
2017-09-13T19:18:28.190Z,4.20
2017-09-13T19:20:56.027Z,3.83
2017-09-13T19:23:23.883Z,4.10
2017-09-13T19:25:51.663Z,3.83
2017-09-13T19:28:21.430Z,4.40
2017-09-13T19:30:49.239Z,4.93
2017-09-13T19:33:18.557Z,4.47
2017-09-13T19:35:46.339Z,4.53
2017-09-13T19:38:14.104Z,5.13
2017-09-13T19:40:41.927Z,3.50
2017-09-13T19:43:09.736Z,4.07
2017-09-13T19:45:37.474Z,4.90
2017-09-13T19:48:05.372Z,4.67
2017-09-13T19:50:33.107Z,3.50
2017-09-13T19:53:00.886Z,4.00
2017-09-13T19:55:28.700Z,3.33
2017-09-13T19:57:57.277Z,3.60
2017-09-13T20:00:25.125Z,4.17
2017-09-13T20:02:52.923Z,4.00
2017-09-13T20:05:21.423Z,4.50
2017-09-13T20:07:49.212Z,3.47
2017-09-13T20:10:17.020Z,5.10
2017-09-13T20:12:44.799Z,3.70
2017-09-13T20:17:45.173Z,3.43
2017-09-13T20:20:13.008Z,4.23
2017-09-13T20:22:40.793Z,3.60
2017-09-13T20:25:08.564Z,3.83
2017-09-13T20:27:36.304Z,4.27
2017-09-13T20:30:04.030Z,4.43
2017-09-13T20:32:31.783Z,3.20
2017-09-13T20:34:59.530Z,2.93
2017-09-13T20:37:27.285Z,2.13
2017-09-13T20:39:55.777Z,2.77
2017-09-13T20:42:23.563Z,3.00
2017-09-13T20:44:51.349Z,4.10
2017-09-13T20:47:19.145Z,3.20
2017-09-13T20:49:48.412Z,3.33
2017-09-13T20:52:18.625Z,3.30
2017-09-13T20:54:47.971Z,2.50
2017-09-13T20:57:16.876Z,2.93
2017-09-13T20:59:44.717Z,2.77
2017-09-13T21:02:12.467Z,2.63
2017-09-13T21:04:40.198Z,3.00
2017-09-13T21:07:07.988Z,2.67
2017-09-13T21:09:35.726Z,3.17
2017-09-13T21:15:20.640Z,3.43
2017-09-13T21:17:48.631Z,2.50
2017-09-13T21:20:17.952Z,2.70
2017-09-13T21:22:52.171Z,2.10
2017-09-13T21:25:29.390Z,2.80
2017-09-13T21:27:57.268Z,2.80
2017-09-13T21:30:25.860Z,2.50
2017-09-13T21:32:53.619Z,2.60
2017-09-13T21:35:21.471Z,2.10
2017-09-13T21:37:49.246Z,2.27
2017-09-13T21:40:16.960Z,2.50
2017-09-13T21:42:44.683Z,1.90
2017-09-13T21:45:12.530Z,1.83
2017-09-13T21:47:40.339Z,2.60
2017-09-13T21:50:12.731Z,1.83
2017-09-13T21:52:40.467Z,2.83
2017-09-13T21:55:09.838Z,2.37
2017-09-13T21:57:38.133Z,2.57
2017-09-13T22:00:06.286Z,2.13
2017-09-13T22:02:34.122Z,2.13
2017-09-13T22:05:01.945Z,2.03
2017-09-13T22:07:29.729Z,2.33
2017-09-13T22:09:57.468Z,2.07
2017-09-13T22:12:25.318Z,1.80
2017-09-13T22:14:53.189Z,2.23
2017-09-13T22:17:20.938Z,2.33
2017-09-13T22:19:49.826Z,2.27
2017-09-13T22:22:22.812Z,2.13
2017-09-13T22:24:50.645Z,2.40
2017-09-13T22:27:18.406Z,2.00
2017-09-13T22:29:46.188Z,2.43
2017-09-13T22:32:14.740Z,2.00
2017-09-13T22:34:42.639Z,1.77
2017-09-13T22:37:11.198Z,2.07
2017-09-13T22:39:38.921Z,2.00
2017-09-13T22:42:06.693Z,2.40
2017-09-13T22:44:37.996Z,2.50
2017-09-13T22:47:05.784Z,1.87
2017-09-13T22:49:36.533Z,2.73
2017-09-13T22:52:10.138Z,1.80
2017-09-13T22:54:41.947Z,1.77
2017-09-13T22:57:26.046Z,2.23
2017-09-13T22:59:55.373Z,1.87
2017-09-13T23:02:24.972Z,2.60
2017-09-13T23:04:54.349Z,1.60
2017-09-13T23:07:24.331Z,1.63
2017-09-13T23:09:53.928Z,1.60
2017-09-13T23:12:24.437Z,1.80
2017-09-13T23:14:52.152Z,1.70
2017-09-13T23:17:19.933Z,1.60
2017-09-13T23:19:47.718Z,1.80
2017-09-13T23:22:15.501Z,1.90
2017-09-13T23:24:43.292Z,3.23
2017-09-13T23:27:11.072Z,1.77
2017-09-13T23:29:38.835Z,2.13
2017-09-13T23:32:06.633Z,1.87
2017-09-13T23:34:34.425Z,2.17
2017-09-13T23:37:02.164Z,1.57
2017-09-13T23:39:29.996Z,1.90
2017-09-13T23:41:58.722Z,2.07
2017-09-13T23:44:27.215Z,1.97
2017-09-13T23:46:54.963Z,1.60
2017-09-13T23:49:22.754Z,1.93
2017-09-13T23:51:50.528Z,2.03
2017-09-13T23:54:18.306Z,2.47
2017-09-13T23:56:46.105Z,1.73
2017-09-13T23:59:13.827Z,2.20
